»·PEaware :: N181DJ KOXR-KSMX

N181DJ :: KOXR-KSMX

FLIGHT INFORMATION

Flight Status: Arrived
Operator: Privately registered:
United States
More flights under this callsign
Pilot: Brian H. (29287)
Aircraft: PIPER PA-28R-201 ARROW
(P28R)
More flights by this aircraft type
Origin: KOXR Oxnard
United States
Destination: KSMX Santa Maria Pub/Capt Hancock
United States
More flights between these airports :: More routes between these airports
Route: V25 RZS RZS286 KOAKS
File this flight plan on PilotEdge
Remarks: tec vtup34
Altitude:
(Current/Filed)
8,000ft
Speed:
(Current/Filed)
140kts
Departed: 08-Feb-21 03:32 PM
Arrived: 08-Feb-21 04:08 PM
Distance/Time
Traveled:
75nm/0:36
Distance/Time
To Go:
Arrived

Flight Plot

Page will automatically refresh every two minutes.


Map Options




Map Legend


Flown Route
Filed Route
Departure Airport
Arrival Airport
Navaid (VOR, NDB)
Fix

Horizontal Profiles

Position Reports

Time Latitude Longitude Heading Altitude Ground
Speed
08-Feb-21 15:13 34.198724 -119.202074 359 39ft 0kts
08-Feb-21 15:13 34.198724 -119.202074 359 39ft 0kts
08-Feb-21 15:16 34.198724 -119.202074 359 39ft 0kts
08-Feb-21 15:16 34.198724 -119.202074 359 39ft 0kts
08-Feb-21 15:17 34.198724 -119.202074 359 39ft 0kts
08-Feb-21 15:18 34.198724 -119.202074 359 39ft 0kts
08-Feb-21 15:19 34.198724 -119.202074 359 39ft 0kts
08-Feb-21 15:20 34.198724 -119.202074 359 39ft 0kts
08-Feb-21 15:21 34.198724 -119.202074 359 39ft 0kts
08-Feb-21 15:22 34.198724 -119.202074 359 39ft 0kts
08-Feb-21 15:23 34.198724 -119.202074 359 39ft 0kts
08-Feb-21 15:24 34.198724 -119.202074 359 39ft 0kts
08-Feb-21 15:25 34.198991 -119.202078 358 39ft 2kts
08-Feb-21 15:26 34.199119 -119.202083 358 39ft 0kts
08-Feb-21 15:27 34.199119 -119.202083 358 39ft 0kts
08-Feb-21 15:28 34.199764 -119.201271 90 40ft 8kts
08-Feb-21 15:29 34.199744 -119.197784 70 42ft 13kts
08-Feb-21 15:30 34.200558 -119.197557 355 42ft 11kts
08-Feb-21 15:31 34.200569 -119.222489 267 783ft 95kts
08-Feb-21 15:32 34.200365 -119.254397 267 1961ft 95kts
08-Feb-21 15:33 34.200023 -119.285615 268 3060ft 85kts
08-Feb-21 15:34 34.199708 -119.313724 268 3845ft 88kts
08-Feb-21 15:35 34.199309 -119.344366 268 4680ft 98kts
08-Feb-21 15:36 34.207539 -119.376223 306 5448ft 109kts
08-Feb-21 15:37 34.228003 -119.403986 310 6204ft 112kts
08-Feb-21 15:38 34.249085 -119.431373 310 6957ft 110kts
08-Feb-21 15:39 34.269577 -119.457879 310 7705ft 106kts
08-Feb-21 15:40 34.291454 -119.486291 310 7998ft 133kts
08-Feb-21 15:41 34.318157 -119.521486 310 7994ft 146kts
08-Feb-21 15:42 34.346139 -119.558331 310 7996ft 149kts
08-Feb-21 15:43 34.374226 -119.595201 310 7997ft 149kts
08-Feb-21 15:44 34.401359 -119.633159 297 7998ft 148kts
08-Feb-21 15:45 34.420293 -119.677501 293 8000ft 148kts
08-Feb-21 15:46 34.437824 -119.722704 293 8000ft 148kts
08-Feb-21 15:47 34.455348 -119.767882 293 8000ft 148kts
08-Feb-21 15:48 34.472814 -119.813007 293 7997ft 148kts
08-Feb-21 15:49 34.490286 -119.858429 293 7994ft 149kts
08-Feb-21 15:50 34.507671 -119.904068 293 7989ft 149kts
08-Feb-21 15:51 34.526044 -119.952468 294 7466ft 166kts
08-Feb-21 15:52 34.545624 -120.003260 294 6689ft 164kts
08-Feb-21 15:53 34.564903 -120.054102 295 5973ft 157kts
08-Feb-21 15:54 34.583234 -120.100623 295 5971ft 150kts
08-Feb-21 15:55 34.602741 -120.150146 295 5292ft 168kts
08-Feb-21 15:56 34.622538 -120.200359 298 4689ft 163kts
08-Feb-21 15:57 34.653170 -120.240992 313 4090ft 163kts
08-Feb-21 15:58 34.683652 -120.279888 313 3717ft 157kts
08-Feb-21 15:59 34.713413 -120.317774 313 3496ft 149kts
08-Feb-21 16:00 34.746327 -120.346469 328 3178ft 138kts
08-Feb-21 16:01 34.778522 -120.368850 329 2563ft 135kts
08-Feb-21 16:02 34.809058 -120.390070 330 2235ft 101kts
08-Feb-21 16:03 34.828401 -120.402228 332 2003ft 79kts
08-Feb-21 16:04 34.848696 -120.415721 328 1621ft 77kts
08-Feb-21 16:05 34.867678 -120.426628 339 1139ft 85kts
08-Feb-21 16:06 34.884815 -120.437148 323 550ft 67kts
08-Feb-21 16:07 34.896473 -120.450192 332 264ft 20kts
08-Feb-21 16:08 34.897847 -120.450282 0 264ft 0kts
08-Feb-21 16:09 34.900071 -120.452061 313 264ft 20kts
08-Feb-21 16:10 34.901493 -120.452301 126 264ft 0kts

Navigation Log

Ident Type
Flight plan parsing failed, navigation log unavailable